sensor_id;sensor_type;location;lat;lon;timestamp;temperature;humidity
13375;DHT22;6756;51.354;15.754;2023-05-07T00:02:12;7.70;99.90
13375;DHT22;6756;51.354;15.754;2023-05-07T00:06:14;7.60;99.90
13375;DHT22;6756;51.354;15.754;2023-05-07T00:10:15;7.60;99.90
13375;DHT22;6756;51.354;15.754;2023-05-07T00:14:16;7.70;99.90
13375;DHT22;6756;51.354;15.754;2023-05-07T00:18:17;7.60;99.90
13375;DHT22;6756;51.354;15.754;2023-05-07T00:22:21;7.70;99.90
13375;DHT22;6756;51.354;15.754;2023-05-07T00:26:22;7.70;99.90
13375;DHT22;6756;51.354;15.754;2023-05-07T00:30:23;7.60;99.90
13375;DHT22;6756;51.354;15.754;2023-05-07T00:34:24;7.60;99.90
13375;DHT22;6756;51.354;15.754;2023-05-07T00:38:25;7.60;99.90
13375;DHT22;6756;51.354;15.754;2023-05-07T00:42:26;7.60;99.90
13375;DHT22;6756;51.354;15.754;2023-05-07T00:46:27;7.60;99.90
13375;DHT22;6756;51.354;15.754;2023-05-07T00:50:28;7.60;99.90
13375;DHT22;6756;51.354;15.754;2023-05-07T00:54:29;7.70;99.90
13375;DHT22;6756;51.354;15.754;2023-05-07T00:58:30;7.70;99.90
13375;DHT22;6756;51.354;15.754;2023-05-07T01:02:31;7.60;99.90
13375;DHT22;6756;51.354;15.754;2023-05-07T01:06:33;7.60;99.90
13375;DHT22;6756;51.354;15.754;2023-05-07T01:10:34;7.60;99.90
13375;DHT22;6756;51.354;15.754;2023-05-07T01:14:35;7.60;99.90
13375;DHT22;6756;51.354;15.754;2023-05-07T01:18:36;7.60;99.90
13375;DHT22;6756;51.354;15.754;2023-05-07T01:22:41;7.60;99.90
13375;DHT22;6756;51.354;15.754;2023-05-07T01:26:44;7.60;99.90
13375;DHT22;6756;51.354;15.754;2023-05-07T01:30:48;7.60;99.90
13375;DHT22;6756;51.354;15.754;2023-05-07T01:34:51;7.60;99.90
13375;DHT22;6756;51.354;15.754;2023-05-07T01:38:53;7.60;99.90
13375;DHT22;6756;51.354;15.754;2023-05-07T01:42:54;7.60;99.90
13375;DHT22;6756;51.354;15.754;2023-05-07T01:46:57;7.60;99.90
13375;DHT22;6756;51.354;15.754;2023-05-07T01:50:58;7.60;99.90
13375;DHT22;6756;51.354;15.754;2023-05-07T01:54:59;7.60;99.90
13375;DHT22;6756;51.354;15.754;2023-05-07T01:59:00;7.60;99.90
13375;DHT22;6756;51.354;15.754;2023-05-07T02:03:02;7.60;99.90
13375;DHT22;6756;51.354;15.754;2023-05-07T02:07:03;7.60;99.90
13375;DHT22;6756;51.354;15.754;2023-05-07T02:11:04;7.60;99.90
13375;DHT22;6756;51.354;15.754;2023-05-07T02:15:06;7.60;99.90
13375;DHT22;6756;51.354;15.754;2023-05-07T02:19:07;7.60;99.90
13375;DHT22;6756;51.354;15.754;2023-05-07T02:23:08;7.60;99.90
13375;DHT22;6756;51.354;15.754;2023-05-07T02:27:09;7.60;99.90
13375;DHT22;6756;51.354;15.754;2023-05-07T02:31:13;7.70;99.90
13375;DHT22;6756;51.354;15.754;2023-05-07T02:35:13;7.60;99.90
13375;DHT22;6756;51.354;15.754;2023-05-07T02:39:14;7.60;99.90
13375;DHT22;6756;51.354;15.754;2023-05-07T02:43:16;7.60;99.90
13375;DHT22;6756;51.354;15.754;2023-05-07T02:47:17;7.60;99.90
13375;DHT22;6756;51.354;15.754;2023-05-07T02:51:22;7.60;99.90
13375;DHT22;6756;51.354;15.754;2023-05-07T02:55:23;7.60;99.90
13375;DHT22;6756;51.354;15.754;2023-05-07T02:59:24;7.60;99.90
13375;DHT22;6756;51.354;15.754;2023-05-07T03:03:28;7.60;99.90
13375;DHT22;6756;51.354;15.754;2023-05-07T03:07:29;7.60;99.90
13375;DHT22;6756;51.354;15.754;2023-05-07T03:11:30;7.50;99.90
13375;DHT22;6756;51.354;15.754;2023-05-07T03:15:31;7.60;99.90
13375;DHT22;6756;51.354;15.754;2023-05-07T03:19:32;7.60;99.90
13375;DHT22;6756;51.354;15.754;2023-05-07T03:23:33;7.60;99.90
13375;DHT22;6756;51.354;15.754;2023-05-07T03:27:34;7.60;99.90
13375;DHT22;6756;51.354;15.754;2023-05-07T03:31:35;7.60;99.90
13375;DHT22;6756;51.354;15.754;2023-05-07T03:35:36;7.60;99.90
13375;DHT22;6756;51.354;15.754;2023-05-07T03:39:37;7.50;99.90
13375;DHT22;6756;51.354;15.754;2023-05-07T03:43:38;7.60;99.90
13375;DHT22;6756;51.354;15.754;2023-05-07T03:47:38;7.60;99.90
13375;DHT22;6756;51.354;15.754;2023-05-07T03:51:39;7.60;99.90
13375;DHT22;6756;51.354;15.754;2023-05-07T03:55:40;7.70;99.90
13375;DHT22;6756;51.354;15.754;2023-05-07T03:59:42;7.70;99.90
13375;DHT22;6756;51.354;15.754;2023-05-07T04:03:43;7.70;99.90
13375;DHT22;6756;51.354;15.754;2023-05-07T04:07:43;7.70;99.90
13375;DHT22;6756;51.354;15.754;2023-05-07T04:11:45;7.80;99.90
13375;DHT22;6756;51.354;15.754;2023-05-07T04:15:45;7.80;99.90
13375;DHT22;6756;51.354;15.754;2023-05-07T04:19:47;7.80;99.90
13375;DHT22;6756;51.354;15.754;2023-05-07T04:23:48;7.80;99.90
13375;DHT22;6756;51.354;15.754;2023-05-07T04:27:50;7.80;99.90
13375;DHT22;6756;51.354;15.754;2023-05-07T04:31:51;7.90;99.90
13375;DHT22;6756;51.354;15.754;2023-05-07T04:35:52;7.80;99.90
13375;DHT22;6756;51.354;15.754;2023-05-07T04:39:53;7.80;99.90
13375;DHT22;6756;51.354;15.754;2023-05-07T04:43:54;7.80;99.90
13375;DHT22;6756;51.354;15.754;2023-05-07T04:47:56;7.80;99.90
13375;DHT22;6756;51.354;15.754;2023-05-07T04:51:57;7.70;99.90
13375;DHT22;6756;51.354;15.754;2023-05-07T04:55:58;7.70;99.90
13375;DHT22;6756;51.354;15.754;2023-05-07T04:59:59;7.70;99.90
13375;DHT22;6756;51.354;15.754;2023-05-07T05:04:00;7.70;99.90
13375;DHT22;6756;51.354;15.754;2023-05-07T05:08:01;7.70;99.90
13375;DHT22;6756;51.354;15.754;2023-05-07T05:12:02;7.70;99.90
13375;DHT22;6756;51.354;15.754;2023-05-07T05:16:03;7.60;99.90
13375;DHT22;6756;51.354;15.754;2023-05-07T05:20:05;7.60;99.90
13375;DHT22;6756;51.354;15.754;2023-05-07T05:24:06;7.60;99.90
13375;DHT22;6756;51.354;15.754;2023-05-07T05:28:07;7.60;99.90
13375;DHT22;6756;51.354;15.754;2023-05-07T05:32:08;7.60;99.90
13375;DHT22;6756;51.354;15.754;2023-05-07T05:36:10;7.70;99.90
13375;DHT22;6756;51.354;15.754;2023-05-07T05:40:12;7.80;99.90
13375;DHT22;6756;51.354;15.754;2023-05-07T05:44:13;7.80;99.90
13375;DHT22;6756;51.354;15.754;2023-05-07T05:48:14;7.90;99.90
13375;DHT22;6756;51.354;15.754;2023-05-07T05:52:15;8.00;99.90
13375;DHT22;6756;51.354;15.754;2023-05-07T05:56:18;8.20;99.90
13375;DHT22;6756;51.354;15.754;2023-05-07T06:00:19;8.60;99.90
13375;DHT22;6756;51.354;15.754;2023-05-07T06:04:22;9.00;99.90
13375;DHT22;6756;51.354;15.754;2023-05-07T06:08:24;9.40;99.90
13375;DHT22;6756;51.354;15.754;2023-05-07T06:12:25;9.80;99.90
13375;DHT22;6756;51.354;15.754;2023-05-07T06:16:25;9.90;99.90
13375;DHT22;6756;51.354;15.754;2023-05-07T06:20:32;10.00;99.90
13375;DHT22;6756;51.354;15.754;2023-05-07T06:24:39;9.90;99.90
13375;DHT22;6756;51.354;15.754;2023-05-07T06:28:40;9.90;99.90
13375;DHT22;6756;51.354;15.754;2023-05-07T06:32:41;9.80;99.90
13375;DHT22;6756;51.354;15.754;2023-05-07T06:36:45;9.80;99.90
13375;DHT22;6756;51.354;15.754;2023-05-07T06:40:49;9.70;99.90
13375;DHT22;6756;51.354;15.754;2023-05-07T06:44:50;9.60;99.90
13375;DHT22;6756;51.354;15.754;2023-05-07T06:48:51;9.50;99.90
13375;DHT22;6756;51.354;15.754;2023-05-07T06:52:53;9.50;99.90
13375;DHT22;6756;51.354;15.754;2023-05-07T06:56:54;9.60;99.90
13375;DHT22;6756;51.354;15.754;2023-05-07T07:00:55;9.70;99.90
13375;DHT22;6756;51.354;15.754;2023-05-07T07:04:55;9.70;99.90
13375;DHT22;6756;51.354;15.754;2023-05-07T07:08:57;9.90;99.90
13375;DHT22;6756;51.354;15.754;2023-05-07T07:12:58;10.10;99.90
13375;DHT22;6756;51.354;15.754;2023-05-07T07:16:59;10.30;99.90
13375;DHT22;6756;51.354;15.754;2023-05-07T07:21:00;10.50;1.00
13375;DHT22;6756;51.354;15.754;2023-05-07T07:25:04;10.60;1.00
13375;DHT22;6756;51.354;15.754;2023-05-07T07:29:06;10.80;1.00
13375;DHT22;6756;51.354;15.754;2023-05-07T07:33:07;10.70;1.00
13375;DHT22;6756;51.354;15.754;2023-05-07T07:37:08;10.70;1.00
13375;DHT22;6756;51.354;15.754;2023-05-07T07:41:09;10.60;1.00
13375;DHT22;6756;51.354;15.754;2023-05-07T07:45:13;10.60;1.00
13375;DHT22;6756;51.354;15.754;2023-05-07T07:49:14;10.60;1.00
13375;DHT22;6756;51.354;15.754;2023-05-07T07:53:15;10.50;1.00
13375;DHT22;6756;51.354;15.754;2023-05-07T07:57:16;10.20;1.00
13375;DHT22;6756;51.354;15.754;2023-05-07T08:01:17;10.00;1.00
13375;DHT22;6756;51.354;15.754;2023-05-07T08:05:18;9.90;16.40
13375;DHT22;6756;51.354;15.754;2023-05-07T08:09:19;10.00;2.80
13375;DHT22;6756;51.354;15.754;2023-05-07T08:13:20;10.10;1.00
13375;DHT22;6756;51.354;15.754;2023-05-07T08:17:24;10.10;1.00
13375;DHT22;6756;51.354;15.754;2023-05-07T08:21:25;10.10;1.00
13375;DHT22;6756;51.354;15.754;2023-05-07T08:25:26;10.10;1.00
13375;DHT22;6756;51.354;15.754;2023-05-07T08:29:27;10.10;1.00
13375;DHT22;6756;51.354;15.754;2023-05-07T08:33:28;10.20;1.00
13375;DHT22;6756;51.354;15.754;2023-05-07T08:37:29;10.30;1.00
13375;DHT22;6756;51.354;15.754;2023-05-07T08:41:30;10.40;1.00
13375;DHT22;6756;51.354;15.754;2023-05-07T08:45:35;10.50;1.00
13375;DHT22;6756;51.354;15.754;2023-05-07T08:49:37;10.80;1.00
13375;DHT22;6756;51.354;15.754;2023-05-07T08:53:40;11.10;99.90
13375;DHT22;6756;51.354;15.754;2023-05-07T08:57:42;11.30;99.90
13375;DHT22;6756;51.354;15.754;2023-05-07T09:01:46;11.10;99.90
13375;DHT22;6756;51.354;15.754;2023-05-07T09:05:48;11.10;99.90
13375;DHT22;6756;51.354;15.754;2023-05-07T09:09:49;11.20;99.90
13375;DHT22;6756;51.354;15.754;2023-05-07T09:13:54;11.50;99.90
13375;DHT22;6756;51.354;15.754;2023-05-07T09:18:00;11.70;99.90
13375;DHT22;6756;51.354;15.754;2023-05-07T09:22:03;11.60;99.90
13375;DHT22;6756;51.354;15.754;2023-05-07T09:26:04;11.40;99.90
13375;DHT22;6756;51.354;15.754;2023-05-07T09:30:08;11.80;99.90
13375;DHT22;6756;51.354;15.754;2023-05-07T09:34:09;12.40;99.90
13375;DHT22;6756;51.354;15.754;2023-05-07T09:38:10;12.70;99.90
13375;DHT22;6756;51.354;15.754;2023-05-07T09:42:12;12.90;99.90
13375;DHT22;6756;51.354;15.754;2023-05-07T09:46:16;13.10;99.90
13375;DHT22;6756;51.354;15.754;2023-05-07T09:50:44;12.70;99.90
13375;DHT22;6756;51.354;15.754;2023-05-07T09:54:57;12.30;99.90
13375;DHT22;6756;51.354;15.754;2023-05-07T09:59:00;11.90;99.90
13375;DHT22;6756;51.354;15.754;2023-05-07T10:03:03;11.70;99.90
13375;DHT22;6756;51.354;15.754;2023-05-07T10:07:05;11.40;99.90
13375;DHT22;6756;51.354;15.754;2023-05-07T10:11:10;11.10;99.90
13375;DHT22;6756;51.354;15.754;2023-05-07T10:15:12;10.80;99.90
13375;DHT22;6756;51.354;15.754;2023-05-07T10:19:13;10.70;99.90
13375;DHT22;6756;51.354;15.754;2023-05-07T10:23:19;11.20;99.90
13375;DHT22;6756;51.354;15.754;2023-05-07T10:27:24;11.90;99.90
13375;DHT22;6756;51.354;15.754;2023-05-07T10:35:59;12.80;99.90
13375;DHT22;6756;51.354;15.754;2023-05-07T10:40:01;12.90;99.90
13375;DHT22;6756;51.354;15.754;2023-05-07T10:44:02;12.50;99.90
13375;DHT22;6756;51.354;15.754;2023-05-07T10:48:17;12.10;99.90
13375;DHT22;6756;51.354;15.754;2023-05-07T10:52:23;11.70;99.90
13375;DHT22;6756;51.354;15.754;2023-05-07T10:56:28;11.40;99.90
13375;DHT22;6756;51.354;15.754;2023-05-07T11:04:30;11.20;99.90
13375;DHT22;6756;51.354;15.754;2023-05-07T11:08:56;11.50;99.90
13375;DHT22;6756;51.354;15.754;2023-05-07T11:12:58;11.90;99.90
13375;DHT22;6756;51.354;15.754;2023-05-07T11:17:05;12.20;99.90
13375;DHT22;6756;51.354;15.754;2023-05-07T11:21:07;12.40;99.90
13375;DHT22;6756;51.354;15.754;2023-05-07T11:25:09;12.30;99.90
13375;DHT22;6756;51.354;15.754;2023-05-07T11:29:12;11.90;99.90
13375;DHT22;6756;51.354;15.754;2023-05-07T11:33:17;11.60;99.90
13375;DHT22;6756;51.354;15.754;2023-05-07T11:37:18;11.50;99.90
13375;DHT22;6756;51.354;15.754;2023-05-07T11:41:19;11.50;99.90
13375;DHT22;6756;51.354;15.754;2023-05-07T11:45:24;11.60;99.90
13375;DHT22;6756;51.354;15.754;2023-05-07T11:49:28;11.80;99.90
13375;DHT22;6756;51.354;15.754;2023-05-07T11:53:43;12.10;99.90
13375;DHT22;6756;51.354;15.754;2023-05-07T11:57:45;12.60;99.90
13375;DHT22;6756;51.354;15.754;2023-05-07T12:01:46;12.90;99.90
13375;DHT22;6756;51.354;15.754;2023-05-07T12:05:48;13.20;92.60
13375;DHT22;6756;51.354;15.754;2023-05-07T12:09:50;13.40;57.00
13375;DHT22;6756;51.354;15.754;2023-05-07T12:13:51;13.20;48.90
13375;DHT22;6756;51.354;15.754;2023-05-07T12:17:52;12.60;58.40
13375;DHT22;6756;51.354;15.754;2023-05-07T12:21:53;12.10;99.90
13375;DHT22;6756;51.354;15.754;2023-05-07T12:25:57;11.60;99.90
13375;DHT22;6756;51.354;15.754;2023-05-07T12:29:59;11.40;99.90
13375;DHT22;6756;51.354;15.754;2023-05-07T12:34:00;11.30;99.90
13375;DHT22;6756;51.354;15.754;2023-05-07T12:38:12;11.30;99.90
13375;DHT22;6756;51.354;15.754;2023-05-07T12:42:19;11.30;99.90
13375;DHT22;6756;51.354;15.754;2023-05-07T12:46:23;11.50;99.90
13375;DHT22;6756;51.354;15.754;2023-05-07T12:50:25;11.70;99.90
13375;DHT22;6756;51.354;15.754;2023-05-07T12:54:37;11.90;99.90
13375;DHT22;6756;51.354;15.754;2023-05-07T12:58:39;12.10;99.90
13375;DHT22;6756;51.354;15.754;2023-05-07T13:02:42;12.20;99.90
13375;DHT22;6756;51.354;15.754;2023-05-07T13:06:44;12.40;95.20
13375;DHT22;6756;51.354;15.754;2023-05-07T13:10:46;12.70;71.10
13375;DHT22;6756;51.354;15.754;2023-05-07T13:14:50;12.70;51.20
13375;DHT22;6756;51.354;15.754;2023-05-07T13:18:51;12.40;62.70
13375;DHT22;6756;51.354;15.754;2023-05-07T13:22:52;12.50;79.30
13375;DHT22;6756;51.354;15.754;2023-05-07T13:26:53;12.60;49.10
13375;DHT22;6756;51.354;15.754;2023-05-07T13:30:54;12.50;51.40
13375;DHT22;6756;51.354;15.754;2023-05-07T13:34:55;12.60;59.70
13375;DHT22;6756;51.354;15.754;2023-05-07T13:38:59;12.50;56.00
13375;DHT22;6756;51.354;15.754;2023-05-07T13:43:01;12.30;93.20
13375;DHT22;6756;51.354;15.754;2023-05-07T13:47:05;12.00;93.10
13375;DHT22;6756;51.354;15.754;2023-05-07T13:51:07;11.80;99.90
13375;DHT22;6756;51.354;15.754;2023-05-07T13:55:08;11.90;99.90
13375;DHT22;6756;51.354;15.754;2023-05-07T13:59:09;12.10;99.90
13375;DHT22;6756;51.354;15.754;2023-05-07T14:03:17;12.30;92.50
13375;DHT22;6756;51.354;15.754;2023-05-07T14:07:20;12.40;89.30
13375;DHT22;6756;51.354;15.754;2023-05-07T14:11:21;12.40;95.90
13375;DHT22;6756;51.354;15.754;2023-05-07T14:15:23;12.60;90.00
13375;DHT22;6756;51.354;15.754;2023-05-07T14:19:27;12.90;76.90
13375;DHT22;6756;51.354;15.754;2023-05-07T14:23:33;12.90;60.30
13375;DHT22;6756;51.354;15.754;2023-05-07T14:27:34;12.90;43.50
13375;DHT22;6756;51.354;15.754;2023-05-07T14:31:35;12.90;33.90
13375;DHT22;6756;51.354;15.754;2023-05-07T14:35:40;12.50;47.50
13375;DHT22;6756;51.354;15.754;2023-05-07T14:39:41;12.10;86.30
13375;DHT22;6756;51.354;15.754;2023-05-07T14:43:44;11.80;99.90
13375;DHT22;6756;51.354;15.754;2023-05-07T14:47:50;11.60;99.90
13375;DHT22;6756;51.354;15.754;2023-05-07T14:51:52;11.70;99.90
13375;DHT22;6756;51.354;15.754;2023-05-07T14:55:54;11.80;99.90
13375;DHT22;6756;51.354;15.754;2023-05-07T14:59:55;11.90;99.90
13375;DHT22;6756;51.354;15.754;2023-05-07T15:03:56;12.00;99.90
13375;DHT22;6756;51.354;15.754;2023-05-07T15:07:57;12.00;99.90
13375;DHT22;6756;51.354;15.754;2023-05-07T15:11:58;12.00;99.90
13375;DHT22;6756;51.354;15.754;2023-05-07T15:15:59;11.80;99.90
13375;DHT22;6756;51.354;15.754;2023-05-07T15:20:00;11.50;99.90
13375;DHT22;6756;51.354;15.754;2023-05-07T15:24:02;11.30;99.90
13375;DHT22;6756;51.354;15.754;2023-05-07T15:28:03;11.10;99.90
13375;DHT22;6756;51.354;15.754;2023-05-07T15:32:04;11.00;99.90
13375;DHT22;6756;51.354;15.754;2023-05-07T15:36:05;10.90;99.90
13375;DHT22;6756;51.354;15.754;2023-05-07T15:40:07;10.90;99.90
13375;DHT22;6756;51.354;15.754;2023-05-07T15:44:08;10.80;99.90
13375;DHT22;6756;51.354;15.754;2023-05-07T15:48:10;10.90;99.90
13375;DHT22;6756;51.354;15.754;2023-05-07T15:52:12;10.90;99.90
13375;DHT22;6756;51.354;15.754;2023-05-07T15:56:16;10.80;99.90
13375;DHT22;6756;51.354;15.754;2023-05-07T16:00:18;10.80;99.90
13375;DHT22;6756;51.354;15.754;2023-05-07T16:04:19;10.80;99.90
13375;DHT22;6756;51.354;15.754;2023-05-07T16:08:20;10.70;99.90
13375;DHT22;6756;51.354;15.754;2023-05-07T16:12:25;10.70;99.90
13375;DHT22;6756;51.354;15.754;2023-05-07T16:16:26;10.60;99.90
13375;DHT22;6756;51.354;15.754;2023-05-07T16:20:29;10.60;99.90
13375;DHT22;6756;51.354;15.754;2023-05-07T16:24:30;10.60;99.90
13375;DHT22;6756;51.354;15.754;2023-05-07T16:28:32;10.60;99.90
13375;DHT22;6756;51.354;15.754;2023-05-07T16:32:33;10.70;99.90
13375;DHT22;6756;51.354;15.754;2023-05-07T16:36:34;10.70;99.90
13375;DHT22;6756;51.354;15.754;2023-05-07T16:40:39;10.60;99.90
13375;DHT22;6756;51.354;15.754;2023-05-07T16:44:40;10.60;99.90
13375;DHT22;6756;51.354;15.754;2023-05-07T16:48:41;10.60;99.90
13375;DHT22;6756;51.354;15.754;2023-05-07T16:52:42;10.60;99.90
13375;DHT22;6756;51.354;15.754;2023-05-07T16:56:44;10.60;99.90
13375;DHT22;6756;51.354;15.754;2023-05-07T17:00:45;10.50;99.90
13375;DHT22;6756;51.354;15.754;2023-05-07T17:04:46;10.40;99.90
13375;DHT22;6756;51.354;15.754;2023-05-07T17:08:47;10.30;99.90
13375;DHT22;6756;51.354;15.754;2023-05-07T17:12:51;10.20;99.90
13375;DHT22;6756;51.354;15.754;2023-05-07T17:16:52;10.10;99.90
13375;DHT22;6756;51.354;15.754;2023-05-07T17:20:53;10.10;99.90
13375;DHT22;6756;51.354;15.754;2023-05-07T17:24:54;10.10;99.90
13375;DHT22;6756;51.354;15.754;2023-05-07T17:28:55;10.00;99.90
13375;DHT22;6756;51.354;15.754;2023-05-07T17:32:56;9.90;99.90
13375;DHT22;6756;51.354;15.754;2023-05-07T17:36:57;9.90;99.90
13375;DHT22;6756;51.354;15.754;2023-05-07T17:40:58;9.80;99.90
13375;DHT22;6756;51.354;15.754;2023-05-07T17:44:59;9.80;99.90
13375;DHT22;6756;51.354;15.754;2023-05-07T17:49:00;9.70;99.90
13375;DHT22;6756;51.354;15.754;2023-05-07T17:53:01;9.70;99.90
13375;DHT22;6756;51.354;15.754;2023-05-07T17:57:03;9.60;99.90
13375;DHT22;6756;51.354;15.754;2023-05-07T18:01:04;9.60;99.90
13375;DHT22;6756;51.354;15.754;2023-05-07T18:05:06;9.50;99.90
13375;DHT22;6756;51.354;15.754;2023-05-07T18:09:07;9.50;99.90
13375;DHT22;6756;51.354;15.754;2023-05-07T18:13:12;9.40;99.90
13375;DHT22;6756;51.354;15.754;2023-05-07T18:17:13;9.40;99.90
13375;DHT22;6756;51.354;15.754;2023-05-07T18:21:14;9.40;99.90
13375;DHT22;6756;51.354;15.754;2023-05-07T18:25:18;9.30;99.90
13375;DHT22;6756;51.354;15.754;2023-05-07T18:29:19;9.30;99.90
13375;DHT22;6756;51.354;15.754;2023-05-07T18:33:20;9.20;99.90
13375;DHT22;6756;51.354;15.754;2023-05-07T18:37:22;9.20;99.90
13375;DHT22;6756;51.354;15.754;2023-05-07T18:41:23;9.20;99.90
13375;DHT22;6756;51.354;15.754;2023-05-07T18:45:27;9.20;99.90
13375;DHT22;6756;51.354;15.754;2023-05-07T18:49:28;9.10;99.90
13375;DHT22;6756;51.354;15.754;2023-05-07T18:53:29;9.10;99.90
13375;DHT22;6756;51.354;15.754;2023-05-07T18:57:30;9.10;99.90
13375;DHT22;6756;51.354;15.754;2023-05-07T19:01:31;9.10;99.90
13375;DHT22;6756;51.354;15.754;2023-05-07T19:05:32;9.00;1.00
13375;DHT22;6756;51.354;15.754;2023-05-07T19:09:33;9.00;1.00
13375;DHT22;6756;51.354;15.754;2023-05-07T19:13:35;8.90;1.00
13375;DHT22;6756;51.354;15.754;2023-05-07T19:17:36;8.90;1.00
13375;DHT22;6756;51.354;15.754;2023-05-07T19:21:40;8.90;1.00
13375;DHT22;6756;51.354;15.754;2023-05-07T19:25:44;8.90;1.00
13375;DHT22;6756;51.354;15.754;2023-05-07T19:29:45;8.90;1.00
13375;DHT22;6756;51.354;15.754;2023-05-07T19:33:46;8.80;1.00
13375;DHT22;6756;51.354;15.754;2023-05-07T19:37:48;8.80;1.00
13375;DHT22;6756;51.354;15.754;2023-05-07T19:41:49;8.80;1.00
13375;DHT22;6756;51.354;15.754;2023-05-07T19:45:54;8.80;1.00
13375;DHT22;6756;51.354;15.754;2023-05-07T19:49:55;8.80;1.00
13375;DHT22;6756;51.354;15.754;2023-05-07T19:53:56;8.80;1.00
13375;DHT22;6756;51.354;15.754;2023-05-07T19:57:57;8.80;99.90
13375;DHT22;6756;51.354;15.754;2023-05-07T20:01:58;8.80;99.90
13375;DHT22;6756;51.354;15.754;2023-05-07T20:06:01;8.80;99.90
13375;DHT22;6756;51.354;15.754;2023-05-07T20:10:02;8.80;99.90
13375;DHT22;6756;51.354;15.754;2023-05-07T20:14:04;8.80;99.90
13375;DHT22;6756;51.354;15.754;2023-05-07T20:18:05;8.80;99.90
13375;DHT22;6756;51.354;15.754;2023-05-07T20:22:06;8.80;99.90
13375;DHT22;6756;51.354;15.754;2023-05-07T20:26:07;8.80;99.90
13375;DHT22;6756;51.354;15.754;2023-05-07T20:30:09;8.80;99.90
13375;DHT22;6756;51.354;15.754;2023-05-07T20:34:10;8.80;99.90
13375;DHT22;6756;51.354;15.754;2023-05-07T20:38:11;8.70;99.90
13375;DHT22;6756;51.354;15.754;2023-05-07T20:42:12;8.70;99.90
13375;DHT22;6756;51.354;15.754;2023-05-07T20:46:16;8.70;99.90
13375;DHT22;6756;51.354;15.754;2023-05-07T20:50:20;8.60;99.90
13375;DHT22;6756;51.354;15.754;2023-05-07T20:54:21;8.60;99.90
13375;DHT22;6756;51.354;15.754;2023-05-07T20:58:22;8.60;99.90
13375;DHT22;6756;51.354;15.754;2023-05-07T21:02:24;8.60;99.90
13375;DHT22;6756;51.354;15.754;2023-05-07T21:06:25;8.60;99.90
13375;DHT22;6756;51.354;15.754;2023-05-07T21:10:27;8.50;99.90
13375;DHT22;6756;51.354;15.754;2023-05-07T21:14:28;8.50;99.90
13375;DHT22;6756;51.354;15.754;2023-05-07T21:18:29;8.50;99.90
13375;DHT22;6756;51.354;15.754;2023-05-07T21:22:30;8.50;99.90
13375;DHT22;6756;51.354;15.754;2023-05-07T21:26:34;8.50;99.90
13375;DHT22;6756;51.354;15.754;2023-05-07T21:30:35;8.50;99.90
13375;DHT22;6756;51.354;15.754;2023-05-07T21:34:36;8.50;99.90
13375;DHT22;6756;51.354;15.754;2023-05-07T21:38:38;8.40;99.90
13375;DHT22;6756;51.354;15.754;2023-05-07T21:42:39;8.40;99.90
13375;DHT22;6756;51.354;15.754;2023-05-07T21:46:40;8.40;99.90
13375;DHT22;6756;51.354;15.754;2023-05-07T21:50:41;8.40;99.90
13375;DHT22;6756;51.354;15.754;2023-05-07T21:54:45;8.30;99.90
13375;DHT22;6756;51.354;15.754;2023-05-07T21:58:46;8.30;99.90
13375;DHT22;6756;51.354;15.754;2023-05-07T22:02:51;8.20;99.90
13375;DHT22;6756;51.354;15.754;2023-05-07T22:06:52;8.20;99.90
13375;DHT22;6756;51.354;15.754;2023-05-07T22:10:56;8.10;99.90
13375;DHT22;6756;51.354;15.754;2023-05-07T22:14:57;8.10;99.90
13375;DHT22;6756;51.354;15.754;2023-05-07T22:18:58;8.00;99.90
13375;DHT22;6756;51.354;15.754;2023-05-07T22:22:59;8.00;99.90
13375;DHT22;6756;51.354;15.754;2023-05-07T22:27:00;7.80;99.90
13375;DHT22;6756;51.354;15.754;2023-05-07T22:31:01;7.60;99.90
13375;DHT22;6756;51.354;15.754;2023-05-07T22:35:03;7.50;99.90
13375;DHT22;6756;51.354;15.754;2023-05-07T22:39:04;7.30;99.90
13375;DHT22;6756;51.354;15.754;2023-05-07T22:43:09;7.20;99.90
13375;DHT22;6756;51.354;15.754;2023-05-07T22:47:10;7.00;99.90
13375;DHT22;6756;51.354;15.754;2023-05-07T22:51:12;7.00;99.90
13375;DHT22;6756;51.354;15.754;2023-05-07T22:55:13;6.80;99.90
13375;DHT22;6756;51.354;15.754;2023-05-07T22:59:14;6.60;99.90
13375;DHT22;6756;51.354;15.754;2023-05-07T23:03:15;6.50;1.00
13375;DHT22;6756;51.354;15.754;2023-05-07T23:07:16;6.40;1.00
13375;DHT22;6756;51.354;15.754;2023-05-07T23:11:17;6.30;1.00
13375;DHT22;6756;51.354;15.754;2023-05-07T23:15:18;6.30;1.00
13375;DHT22;6756;51.354;15.754;2023-05-07T23:19:19;6.20;1.00
13375;DHT22;6756;51.354;15.754;2023-05-07T23:23:20;6.00;1.00
13375;DHT22;6756;51.354;15.754;2023-05-07T23:27:21;5.90;12.60
13375;DHT22;6756;51.354;15.754;2023-05-07T23:31:22;5.80;78.80
13375;DHT22;6756;51.354;15.754;2023-05-07T23:35:22;5.70;99.90
13375;DHT22;6756;51.354;15.754;2023-05-07T23:39:23;5.60;99.90
13375;DHT22;6756;51.354;15.754;2023-05-07T23:43:24;5.50;99.90
13375;DHT22;6756;51.354;15.754;2023-05-07T23:47:25;5.40;99.90
13375;DHT22;6756;51.354;15.754;2023-05-07T23:51:26;5.40;99.90
13375;DHT22;6756;51.354;15.754;2023-05-07T23:55:27;5.30;99.90
13375;DHT22;6756;51.354;15.754;2023-05-07T23:59:29;5.20;99.90
